createdAt,value
2023-04-03T00:01:52.244Z,9.40
2023-04-03T00:04:02.518Z,10.00
2023-04-03T00:06:13.329Z,7.40
2023-04-03T00:08:24.063Z,2.80
2023-04-03T00:10:34.134Z,6.10
2023-04-03T00:12:43.600Z,11.80
2023-04-03T00:14:53.570Z,6.30
2023-04-03T00:17:03.667Z,14.50
2023-04-03T00:19:14.340Z,2.70
2023-04-03T00:21:24.207Z,6.00
2023-04-03T00:23:34.405Z,10.30
2023-04-03T00:25:44.812Z,9.60
2023-04-03T00:27:55.149Z,6.80
2023-04-03T00:30:05.799Z,11.10
2023-04-03T00:32:15.878Z,7.20
2023-04-03T00:34:25.589Z,4.80
2023-04-03T00:36:35.851Z,9.30
2023-04-03T00:38:46.161Z,6.60
2023-04-03T00:40:56.119Z,9.40
2023-04-03T00:43:13.722Z,7.70
2023-04-03T00:45:38.540Z,5.70
2023-04-03T00:47:49.123Z,3.50
2023-04-03T00:49:59.043Z,9.00
2023-04-03T00:52:12.039Z,8.70
2023-04-03T00:54:22.148Z,9.10
2023-04-03T00:56:32.886Z,10.10
2023-04-03T00:58:47.376Z,12.00
2023-04-03T01:01:01.239Z,6.60
2023-04-03T01:03:11.097Z,7.40
2023-04-03T01:05:23.720Z,4.20
2023-04-03T01:07:35.607Z,6.90
2023-04-03T01:09:47.619Z,14.80
2023-04-03T01:12:15.494Z,2.90
2023-04-03T01:14:25.852Z,3.70
2023-04-03T01:16:36.824Z,1.40
2023-04-03T01:18:48.421Z,10.70
2023-04-03T01:21:25.380Z,2.70
2023-04-03T01:23:49.586Z,1.50
2023-04-03T01:26:00.824Z,5.80
2023-04-03T01:28:13.753Z,2.40
2023-04-03T01:30:27.589Z,1.70
2023-04-03T01:32:38.615Z,3.90
2023-04-03T01:34:48.382Z,5.80
2023-04-03T01:36:58.840Z,7.00
2023-04-03T01:39:08.985Z,3.10
2023-04-03T01:41:19.928Z,7.00
2023-04-03T01:43:30.536Z,4.10
2023-04-03T01:45:41.274Z,6.50
2023-04-03T01:47:51.564Z,3.70
2023-04-03T01:50:02.316Z,8.30
2023-04-03T01:52:14.002Z,3.30
2023-04-03T01:54:23.954Z,2.20
2023-04-03T01:56:34.058Z,3.40
2023-04-03T01:58:43.911Z,6.20
2023-04-03T02:00:53.814Z,10.20
2023-04-03T02:03:04.620Z,7.60
2023-04-03T02:05:15.431Z,10.60
2023-04-03T02:07:25.062Z,6.90
2023-04-03T02:09:35.082Z,8.20
2023-04-03T02:11:45.453Z,9.90
2023-04-03T02:13:56.762Z,7.70
2023-04-03T02:16:13.988Z,7.40
2023-04-03T02:18:25.301Z,14.60
2023-04-03T02:20:35.337Z,11.10
2023-04-03T02:22:45.649Z,7.20
2023-04-03T02:24:55.508Z,3.50
2023-04-03T02:27:05.230Z,14.80
2023-04-03T02:29:15.158Z,5.20
2023-04-03T02:31:25.908Z,15.30
2023-04-03T02:33:36.285Z,7.00
2023-04-03T02:35:54.597Z,6.90
2023-04-03T02:38:04.710Z,8.90
2023-04-03T02:40:15.353Z,8.90
2023-04-03T02:42:25.431Z,6.40
2023-04-03T02:44:36.355Z,6.30
2023-04-03T02:46:46.369Z,6.20
2023-04-03T02:48:56.661Z,5.70
2023-04-03T02:51:06.929Z,3.00
2023-04-03T02:53:16.737Z,6.90
2023-04-03T02:55:27.032Z,8.60
2023-04-03T02:57:38.620Z,10.30
2023-04-03T02:59:48.420Z,5.40
2023-04-03T03:01:58.288Z,3.10
2023-04-03T03:04:08.452Z,0.80
2023-04-03T03:06:19.861Z,3.10
2023-04-03T03:08:29.729Z,2.30
2023-04-03T03:10:39.990Z,3.70
2023-04-03T03:12:50.841Z,0.70
2023-04-03T03:15:01.110Z,2.60
2023-04-03T03:17:11.000Z,3.80
2023-04-03T03:19:21.832Z,3.30
2023-04-03T03:21:32.939Z,2.50
2023-04-03T03:23:42.915Z,3.50
2023-04-03T03:25:52.460Z,1.00
2023-04-03T03:28:02.264Z,1.90
2023-04-03T03:30:13.878Z,4.20
2023-04-03T03:32:23.865Z,7.70
2023-04-03T03:34:34.365Z,7.90
2023-04-03T03:36:44.657Z,10.30
2023-04-03T03:38:55.200Z,7.90
2023-04-03T03:41:05.372Z,18.00
2023-04-03T03:43:16.023Z,8.60
2023-04-03T03:45:27.219Z,9.50
2023-04-03T03:47:37.470Z,5.90
2023-04-03T03:49:47.428Z,7.10
2023-04-03T03:51:58.362Z,21.10
2023-04-03T03:54:09.026Z,6.00
2023-04-03T03:56:19.886Z,15.00
2023-04-03T03:58:29.769Z,10.50
2023-04-03T04:00:40.521Z,12.40
2023-04-03T04:02:54.062Z,7.70
2023-04-03T04:05:05.590Z,5.10
2023-04-03T04:07:15.572Z,9.60
2023-04-03T04:09:25.691Z,11.50
2023-04-03T04:11:36.391Z,12.80
2023-04-03T04:13:46.783Z,7.70
2023-04-03T04:15:57.092Z,3.90
2023-04-03T04:18:07.337Z,7.70
2023-04-03T04:20:17.912Z,19.20
2023-04-03T04:22:28.355Z,10.00
2023-04-03T04:24:38.602Z,16.00
2023-04-03T04:26:50.631Z,14.30
2023-04-03T04:29:00.642Z,5.70
2023-04-03T04:31:10.835Z,19.10
2023-04-03T04:33:20.552Z,10.60
2023-04-03T04:35:30.554Z,14.40
2023-04-03T04:37:41.749Z,17.10
2023-04-03T04:39:52.039Z,9.80
2023-04-03T04:42:01.989Z,2.80
2023-04-03T04:44:12.788Z,4.20
2023-04-03T04:46:23.573Z,2.60
2023-04-03T04:48:37.064Z,4.40
2023-04-03T04:50:48.333Z,5.80
2023-04-03T04:52:57.956Z,5.60
2023-04-03T04:55:08.974Z,3.10
2023-04-03T04:57:19.030Z,3.00
2023-04-03T04:59:29.321Z,4.20
2023-04-03T05:01:40.917Z,4.00
2023-04-03T05:03:55.168Z,7.20
2023-04-03T05:06:06.530Z,2.80
2023-04-03T05:08:16.899Z,1.40
2023-04-03T05:10:26.922Z,1.50
2023-04-03T05:12:37.547Z,3.80
2023-04-03T05:14:48.466Z,1.10
2023-04-03T05:16:59.914Z,1.90
2023-04-03T05:19:11.371Z,5.00
2023-04-03T05:21:24.662Z,2.20
2023-04-03T05:23:35.125Z,4.20
2023-04-03T05:25:46.673Z,2.10
2023-04-03T05:27:57.633Z,1.10
2023-04-03T05:30:09.393Z,6.50
2023-04-03T05:32:19.801Z,1.20
2023-04-03T05:34:31.185Z,1.00
2023-04-03T05:36:41.202Z,1.70
2023-04-03T05:38:51.324Z,2.60
2023-04-03T05:41:02.621Z,0.60
2023-04-03T05:43:13.309Z,1.40
2023-04-03T05:45:24.134Z,4.90
2023-04-03T05:47:34.812Z,3.40
2023-04-03T05:49:46.880Z,1.60
2023-04-03T05:51:58.115Z,0.80
2023-04-03T05:54:16.799Z,2.30
2023-04-03T05:56:27.019Z,4.80
2023-04-03T05:58:36.652Z,2.80
2023-04-03T06:00:46.800Z,1.70
2023-04-03T06:02:56.810Z,3.50
2023-04-03T06:05:08.575Z,4.30
2023-04-03T06:07:21.018Z,1.00
2023-04-03T06:09:33.388Z,1.10
2023-04-03T06:11:43.474Z,0.90
2023-04-03T06:13:53.639Z,2.30
2023-04-03T06:16:03.892Z,3.10
2023-04-03T06:18:13.831Z,1.20
2023-04-03T06:20:24.305Z,1.10
2023-04-03T06:22:34.150Z,4.10
2023-04-03T06:24:45.202Z,2.50
2023-04-03T06:26:55.676Z,12.80
2023-04-03T06:29:05.404Z,9.10
2023-04-03T06:31:15.383Z,3.80
2023-04-03T06:33:25.149Z,1.70
2023-04-03T06:35:36.656Z,2.40
2023-04-03T06:37:46.711Z,1.90
2023-04-03T06:39:57.073Z,2.10
2023-04-03T06:42:06.919Z,0.80
2023-04-03T06:44:21.060Z,1.40
2023-04-03T06:46:32.017Z,0.70
2023-04-03T06:48:42.468Z,1.60
2023-04-03T06:50:52.530Z,2.90
2023-04-03T06:53:03.916Z,1.60
2023-04-03T06:55:14.657Z,0.90
2023-04-03T06:57:24.359Z,1.10
2023-04-03T06:59:34.272Z,0.60
2023-04-03T07:01:44.182Z,0.70
2023-04-03T07:03:55.277Z,3.00
2023-04-03T07:06:05.015Z,0.90
2023-04-03T07:08:15.210Z,0.50
2023-04-03T07:10:27.386Z,0.50
2023-04-03T07:12:37.444Z,1.60
2023-04-03T07:14:47.359Z,1.80
2023-04-03T07:16:57.613Z,0.70
2023-04-03T07:19:08.238Z,0.80
2023-04-03T07:21:17.880Z,0.60
2023-04-03T07:23:27.994Z,2.30
2023-04-03T07:25:39.295Z,0.40
2023-04-03T07:27:49.293Z,0.50
2023-04-03T07:29:59.451Z,0.70
2023-04-03T07:32:10.238Z,1.30
2023-04-03T07:34:20.589Z,0.50
2023-04-03T07:36:30.816Z,1.50
2023-04-03T07:38:40.968Z,3.20
2023-04-03T07:40:54.199Z,1.00
2023-04-03T07:43:04.352Z,1.00
2023-04-03T07:45:15.118Z,1.50
2023-04-03T07:47:24.970Z,2.60
2023-04-03T07:49:35.913Z,2.10
2023-04-03T07:51:45.873Z,0.80
2023-04-03T07:53:55.770Z,1.20
2023-04-03T07:56:06.468Z,0.50
2023-04-03T07:58:18.380Z,0.60
2023-04-03T08:00:28.711Z,1.50
2023-04-03T08:02:38.863Z,1.20
2023-04-03T08:04:48.872Z,0.70
2023-04-03T08:06:58.689Z,0.60
2023-04-03T08:09:08.839Z,0.50
2023-04-03T08:11:20.098Z,0.50
2023-04-03T08:13:30.348Z,0.50
2023-04-03T08:15:40.905Z,1.10
2023-04-03T08:17:50.443Z,2.30
2023-04-03T08:20:00.242Z,0.70
2023-04-03T08:22:09.715Z,0.60
2023-04-03T08:24:19.265Z,0.80
2023-04-03T08:26:29.511Z,0.50
2023-04-03T08:28:39.434Z,0.60
2023-04-03T08:30:49.000Z,1.30
2023-04-03T08:32:58.810Z,1.80
2023-04-03T08:35:09.143Z,0.60
2023-04-03T08:37:18.960Z,0.80
2023-04-03T08:39:29.407Z,0.50
2023-04-03T08:41:41.911Z,0.50
2023-04-03T08:46:14.025Z,0.50
2023-04-03T08:48:28.995Z,2.00
2023-04-03T08:50:42.550Z,0.50
2023-04-03T08:52:55.819Z,5.00
2023-04-03T08:55:08.703Z,3.10
2023-04-03T08:57:19.010Z,1.90
2023-04-03T08:59:34.550Z,2.10
2023-04-03T09:01:46.282Z,1.00
2023-04-03T09:03:56.539Z,1.40
2023-04-03T09:06:10.761Z,0.90
2023-04-03T09:08:27.461Z,2.40
2023-04-03T09:10:40.278Z,1.20
2023-04-03T09:15:09.071Z,1.50
2023-04-03T09:17:24.294Z,0.60
2023-04-03T09:19:45.655Z,0.50
2023-04-03T09:21:56.171Z,0.60
2023-04-03T09:24:09.395Z,0.60
2023-04-03T09:26:27.540Z,0.50
2023-04-03T09:28:50.569Z,0.70
2023-04-03T09:31:03.209Z,1.50
2023-04-03T09:33:14.543Z,2.20
2023-04-03T09:35:36.354Z,0.60
2023-04-03T09:37:58.376Z,0.80
2023-04-03T09:40:09.587Z,0.70
2023-04-03T09:42:23.997Z,0.90
2023-04-03T09:44:35.805Z,0.50
2023-04-03T09:46:45.688Z,3.50
2023-04-03T09:49:08.000Z,1.30
2023-04-03T09:51:20.640Z,3.00
2023-04-03T09:53:35.030Z,0.90
2023-04-03T09:55:49.523Z,1.80
2023-04-03T09:58:01.160Z,0.50
2023-04-03T10:00:27.910Z,3.00
2023-04-03T10:02:42.149Z,0.90
2023-04-03T10:05:02.518Z,3.30
2023-04-03T10:07:36.698Z,2.70
2023-04-03T10:10:00.448Z,4.00
2023-04-03T10:12:12.078Z,6.40
2023-04-03T10:14:22.868Z,2.00
2023-04-03T10:16:40.638Z,1.50
2023-04-03T10:18:54.249Z,1.50
2023-04-03T10:21:14.526Z,3.50
2023-04-03T10:23:36.477Z,0.90
2023-04-03T10:25:52.866Z,2.80
2023-04-03T10:28:08.045Z,4.00
2023-04-03T10:30:32.430Z,1.20
2023-04-03T10:32:57.895Z,2.30
2023-04-03T10:35:19.476Z,0.80
2023-04-03T10:37:38.224Z,1.60
2023-04-03T10:39:56.957Z,2.70
2023-04-03T10:42:16.537Z,0.50
2023-04-03T10:44:40.084Z,0.80
2023-04-03T10:46:55.722Z,0.50
2023-04-03T10:49:21.103Z,2.40
2023-04-03T10:51:36.060Z,3.40
2023-04-03T10:53:54.988Z,2.00
2023-04-03T10:56:13.356Z,1.00
2023-04-03T10:58:29.847Z,1.20
2023-04-03T11:00:45.218Z,3.70
2023-04-03T11:02:59.756Z,1.90
2023-04-03T11:05:19.345Z,3.40
2023-04-03T11:07:33.149Z,0.60
2023-04-03T11:09:48.109Z,1.40
2023-04-03T11:12:04.977Z,1.60
2023-04-03T11:14:23.936Z,2.20
2023-04-03T11:16:50.872Z,2.50
2023-04-03T11:19:06.638Z,4.40
2023-04-03T11:21:24.498Z,1.40
2023-04-03T11:23:48.653Z,2.40
2023-04-03T11:26:09.655Z,0.90
2023-04-03T11:28:19.326Z,1.10
2023-04-03T11:30:33.537Z,0.90
2023-04-03T11:33:12.084Z,2.80
2023-04-03T11:35:26.506Z,2.00
2023-04-03T11:37:40.069Z,0.80
2023-04-03T11:39:58.998Z,2.70
2023-04-03T11:42:27.950Z,3.80
2023-04-03T11:44:40.871Z,0.90
2023-04-03T11:46:59.512Z,1.30
2023-04-03T11:49:30.740Z,4.30
2023-04-03T11:51:48.457Z,0.60
2023-04-03T11:54:18.357Z,2.70
2023-04-03T11:56:35.006Z,4.70
2023-04-03T11:59:04.976Z,1.10
2023-04-03T12:01:35.859Z,0.70
2023-04-03T12:04:16.019Z,0.50
2023-04-03T12:06:55.164Z,2.40
2023-04-03T12:09:05.579Z,3.00
2023-04-03T12:11:32.710Z,0.80
2023-04-03T12:13:44.930Z,1.10
2023-04-03T12:16:01.574Z,1.00
2023-04-03T12:18:53.094Z,2.00
2023-04-03T12:21:04.563Z,0.80
2023-04-03T12:23:30.333Z,2.40
2023-04-03T12:25:54.463Z,0.70
2023-04-03T12:28:05.013Z,3.50
2023-04-03T12:30:29.223Z,2.70
2023-04-03T12:33:12.681Z,0.70
2023-04-03T12:35:31.080Z,2.70
2023-04-03T12:38:16.042Z,0.70
2023-04-03T12:40:34.754Z,0.60
2023-04-03T12:43:09.203Z,2.30
2023-04-03T12:45:24.976Z,2.00
2023-04-03T12:47:37.636Z,1.00
2023-04-03T12:49:50.267Z,1.00
2023-04-03T12:52:01.412Z,1.00
2023-04-03T12:54:22.821Z,1.70
2023-04-03T12:56:35.721Z,2.30
2023-04-03T12:58:45.667Z,1.30
2023-04-03T13:01:07.070Z,4.20
2023-04-03T13:03:28.425Z,3.30
2023-04-03T13:05:40.241Z,0.80
2023-04-03T13:07:55.849Z,1.80
2023-04-03T13:10:17.514Z,0.60
2023-04-03T13:12:27.630Z,2.60
2023-04-03T13:14:38.303Z,0.90
2023-04-03T13:16:58.853Z,0.90
2023-04-03T13:19:09.118Z,1.30
2023-04-03T13:21:22.850Z,3.60
2023-04-03T13:23:34.231Z,1.50
2023-04-03T13:25:48.905Z,0.70
2023-04-03T13:30:35.293Z,3.80
2023-04-03T13:32:46.797Z,5.00
2023-04-03T13:35:00.269Z,2.20
2023-04-03T13:37:25.041Z,0.50
2023-04-03T13:39:35.884Z,1.50
2023-04-03T13:41:47.802Z,2.40
2023-04-03T13:44:00.629Z,0.70
2023-04-03T13:46:30.548Z,1.00
2023-04-03T13:48:45.661Z,2.50
2023-04-03T13:51:02.288Z,3.20
2023-04-03T13:53:17.336Z,1.50
2023-04-03T13:55:30.873Z,0.70
2023-04-03T13:57:51.264Z,0.60
2023-04-03T14:00:00.982Z,2.50
2023-04-03T14:02:23.153Z,1.00
2023-04-03T14:04:36.085Z,1.30
2023-04-03T14:06:45.887Z,1.10
2023-04-03T14:08:56.547Z,1.30
2023-04-03T14:11:06.813Z,1.30
2023-04-03T14:13:19.744Z,1.90
2023-04-03T14:15:31.118Z,1.50
2023-04-03T14:17:40.974Z,1.00
2023-04-03T14:19:52.875Z,1.80
2023-04-03T14:24:13.088Z,1.60
2023-04-03T14:26:25.385Z,1.10
2023-04-03T14:28:36.651Z,1.60
2023-04-03T14:30:47.470Z,1.30
2023-04-03T14:32:58.041Z,3.90
2023-04-03T14:35:09.755Z,3.10
2023-04-03T14:37:21.515Z,4.00
2023-04-03T14:39:31.993Z,2.60
2023-04-03T14:41:41.999Z,3.00
2023-04-03T14:43:52.584Z,0.60
2023-04-03T14:46:02.556Z,1.20
2023-04-03T14:48:21.670Z,2.00
2023-04-03T14:50:32.158Z,1.70
2023-04-03T14:52:42.327Z,1.60
2023-04-03T14:54:52.168Z,2.30
2023-04-03T14:57:03.840Z,1.20
2023-04-03T14:59:18.970Z,0.90
2023-04-03T15:01:29.964Z,0.90
2023-04-03T15:03:41.724Z,1.90
2023-04-03T15:05:54.637Z,1.20
2023-04-03T15:08:04.896Z,2.50
2023-04-03T15:10:23.447Z,1.10
2023-04-03T15:12:33.384Z,1.20
2023-04-03T15:14:47.960Z,2.80
2023-04-03T15:17:03.644Z,1.90
2023-04-03T15:19:13.783Z,1.90
2023-04-03T15:21:23.727Z,1.10
2023-04-03T15:23:33.449Z,0.80
2023-04-03T15:25:43.968Z,1.60
2023-04-03T15:27:54.017Z,1.30
2023-04-03T15:30:04.017Z,0.80
2023-04-03T15:32:14.560Z,3.20
2023-04-03T15:34:24.966Z,0.70
2023-04-03T15:36:35.429Z,1.20
2023-04-03T15:38:45.600Z,2.10
2023-04-03T15:40:56.576Z,1.20
2023-04-03T15:43:07.875Z,1.40
2023-04-03T15:45:18.403Z,1.00
2023-04-03T15:47:29.952Z,0.80
2023-04-03T15:49:41.008Z,2.40
2023-04-03T15:51:50.529Z,1.20
2023-04-03T15:54:00.473Z,0.90
2023-04-03T15:56:11.063Z,2.00
2023-04-03T15:58:21.514Z,2.00
2023-04-03T16:00:31.811Z,0.60
2023-04-03T16:02:42.323Z,1.60
2023-04-03T16:04:52.605Z,1.40
2023-04-03T16:07:03.828Z,1.10
2023-04-03T16:09:13.813Z,0.60
2023-04-03T16:11:23.806Z,1.10
2023-04-03T16:13:35.921Z,2.20
2023-04-03T16:15:46.387Z,1.30
2023-04-03T16:17:57.501Z,0.50
2023-04-03T16:20:09.537Z,1.00
2023-04-03T16:22:19.875Z,1.20
2023-04-03T16:24:29.845Z,1.60
2023-04-03T16:26:39.408Z,2.60
2023-04-03T16:28:49.467Z,3.20
2023-04-03T16:30:59.641Z,2.10
2023-04-03T16:33:11.802Z,6.50
2023-04-03T16:35:21.734Z,1.50
2023-04-03T16:37:33.109Z,1.80
2023-04-03T16:39:43.166Z,3.50
2023-04-03T16:41:53.072Z,1.10
2023-04-03T16:44:03.136Z,4.50
2023-04-03T16:46:13.090Z,4.20
2023-04-03T16:48:23.157Z,0.60
2023-04-03T16:50:33.886Z,1.40
2023-04-03T16:52:43.756Z,1.50
2023-04-03T16:54:57.110Z,2.80
2023-04-03T16:57:07.028Z,1.00
2023-04-03T16:59:17.018Z,1.00
2023-04-03T17:01:27.704Z,1.60
2023-04-03T17:03:37.966Z,0.80
2023-04-03T17:05:49.736Z,1.30
2023-04-03T17:07:59.653Z,1.20
2023-04-03T17:10:11.768Z,3.20
2023-04-03T17:14:30.410Z,0.60
2023-04-03T17:16:42.103Z,0.60
2023-04-03T17:18:52.856Z,0.70
2023-04-03T17:21:03.389Z,0.60
2023-04-03T17:23:13.256Z,1.20
2023-04-03T17:25:23.237Z,2.60
2023-04-03T17:27:33.239Z,0.50
2023-04-03T17:29:43.345Z,1.10
2023-04-03T17:31:53.232Z,0.50
2023-04-03T17:34:03.579Z,1.60
2023-04-03T17:36:14.504Z,1.50
2023-04-03T17:38:24.364Z,0.50
2023-04-03T17:40:34.582Z,2.90
2023-04-03T17:42:44.697Z,2.10
2023-04-03T17:44:54.846Z,1.60
2023-04-03T17:47:04.805Z,0.70
2023-04-03T17:49:15.562Z,1.70
2023-04-03T17:51:27.637Z,1.10
2023-04-03T17:53:37.655Z,1.60
2023-04-03T17:55:47.496Z,0.60
2023-04-03T17:57:57.378Z,4.30
2023-04-03T18:00:08.369Z,3.60
2023-04-03T18:02:21.987Z,1.10
2023-04-03T18:04:32.375Z,0.70
2023-04-03T18:06:46.279Z,1.50
2023-04-03T18:08:57.916Z,1.80
2023-04-03T18:11:08.040Z,1.80
2023-04-03T18:13:18.060Z,1.80
2023-04-03T18:15:28.017Z,0.70
2023-04-03T18:17:37.891Z,2.70
2023-04-03T18:19:48.820Z,4.50
2023-04-03T18:22:03.237Z,3.00
2023-04-03T18:24:17.931Z,4.00
2023-04-03T18:26:29.971Z,12.40
2023-04-03T18:28:40.838Z,4.40
2023-04-03T18:30:51.402Z,3.60
2023-04-03T18:33:01.191Z,3.30
2023-04-03T18:35:12.716Z,3.40
2023-04-03T18:37:24.745Z,3.80
2023-04-03T18:39:34.634Z,2.00
2023-04-03T18:41:45.562Z,5.50
2023-04-03T18:43:55.506Z,4.60
2023-04-03T18:46:06.331Z,1.30
2023-04-03T18:48:16.446Z,1.10
2023-04-03T18:50:26.513Z,5.30
2023-04-03T18:52:37.208Z,1.60
2023-04-03T18:54:47.298Z,3.60
2023-04-03T18:56:58.386Z,12.00
2023-04-03T18:59:09.176Z,17.10
2023-04-03T19:01:20.313Z,19.40
2023-04-03T19:03:32.823Z,21.70
2023-04-03T19:05:46.705Z,18.40
2023-04-03T19:07:57.926Z,12.70
2023-04-03T19:10:08.846Z,16.10
2023-04-03T19:12:19.207Z,10.10
2023-04-03T19:14:29.109Z,12.40
2023-04-03T19:16:39.948Z,12.70
2023-04-03T19:18:49.707Z,16.80
2023-04-03T19:21:00.961Z,11.40
2023-04-03T19:23:11.317Z,6.10
2023-04-03T19:25:21.626Z,2.90
2023-04-03T19:27:31.639Z,58.10
2023-04-03T19:29:42.138Z,44.20
2023-04-03T19:31:53.150Z,32.60
2023-04-03T19:34:04.447Z,16.40
2023-04-03T19:36:16.202Z,33.50
2023-04-03T19:38:27.353Z,30.10
2023-04-03T19:40:38.713Z,23.20
2023-04-03T19:42:50.765Z,28.90
2023-04-03T19:45:01.169Z,14.30
2023-04-03T19:47:11.499Z,33.50
2023-04-03T19:49:21.216Z,17.60
2023-04-03T19:51:31.204Z,15.60
2023-04-03T19:53:41.115Z,25.70
2023-04-03T19:55:51.365Z,20.10
2023-04-03T19:58:02.197Z,14.90
2023-04-03T20:00:14.950Z,18.90
2023-04-03T20:04:33.279Z,9.00
2023-04-03T20:06:43.245Z,10.90
2023-04-03T20:08:54.397Z,24.20
2023-04-03T20:11:04.156Z,13.90
2023-04-03T20:13:14.960Z,10.80
2023-04-03T20:15:24.718Z,22.80
2023-04-03T20:17:34.218Z,31.00
2023-04-03T20:19:44.166Z,27.30
2023-04-03T20:21:54.558Z,12.30
2023-04-03T20:24:05.698Z,29.80
2023-04-03T20:26:25.148Z,14.50
2023-04-03T20:28:36.687Z,12.10
2023-04-03T20:30:47.867Z,21.90
2023-04-03T20:32:59.888Z,10.60
2023-04-03T20:35:11.291Z,23.80
2023-04-03T20:37:22.821Z,13.40
2023-04-03T20:39:32.937Z,31.00
2023-04-03T20:41:43.047Z,9.70
2023-04-03T20:43:54.229Z,12.40
2023-04-03T20:46:05.469Z,31.10
2023-04-03T20:48:15.799Z,22.50
2023-04-03T20:50:26.851Z,14.40
2023-04-03T20:52:37.313Z,15.60
2023-04-03T20:54:47.696Z,17.00
2023-04-03T20:56:57.707Z,10.70
2023-04-03T20:59:07.555Z,6.00
2023-04-03T21:01:23.225Z,17.90
2023-04-03T21:03:34.190Z,24.10
2023-04-03T21:05:45.034Z,25.90
2023-04-03T21:08:29.194Z,23.00
2023-04-03T21:11:12.994Z,11.90
2023-04-03T21:13:56.896Z,28.10
2023-04-03T21:16:02.852Z,20.90
2023-04-03T21:18:50.628Z,12.30
2023-04-03T21:21:00.660Z,30.20
2023-04-03T21:23:11.303Z,11.70
2023-04-03T21:25:21.548Z,21.40
2023-04-03T21:27:31.859Z,22.10
2023-04-03T21:29:42.839Z,34.50
2023-04-03T21:31:54.832Z,24.40
2023-04-03T21:34:05.021Z,17.20
2023-04-03T21:36:16.014Z,12.10
2023-04-03T21:38:27.829Z,25.50
2023-04-03T21:40:37.803Z,21.60
2023-04-03T21:42:47.801Z,17.70
2023-04-03T21:44:57.491Z,18.50
2023-04-03T21:47:08.199Z,18.40
2023-04-03T21:49:18.612Z,8.30
2023-04-03T21:51:29.409Z,10.60
2023-04-03T21:53:39.697Z,14.60
2023-04-03T21:55:58.870Z,10.00
2023-04-03T21:58:08.935Z,22.90
2023-04-03T22:00:19.858Z,8.30
2023-04-03T22:02:31.940Z,22.10
2023-04-03T22:04:42.232Z,20.30
2023-04-03T22:06:52.509Z,37.30
2023-04-03T22:09:02.750Z,19.00
2023-04-03T22:11:14.188Z,26.00
2023-04-03T22:13:24.288Z,8.70
2023-04-03T22:15:37.434Z,13.30
2023-04-03T22:17:47.592Z,22.40
2023-04-03T22:19:57.289Z,16.60
2023-04-03T22:22:07.982Z,17.90
2023-04-03T22:24:19.977Z,15.50
2023-04-03T22:26:30.802Z,18.90
2023-04-03T22:28:42.728Z,15.70
2023-04-03T22:30:53.357Z,16.30
2023-04-03T22:33:03.041Z,25.70
2023-04-03T22:35:13.968Z,22.00
2023-04-03T22:37:23.745Z,17.40
2023-04-03T22:39:33.247Z,29.10
2023-04-03T22:41:45.795Z,15.70
2023-04-03T22:46:05.250Z,20.40
2023-04-03T22:48:14.992Z,17.00
2023-04-03T22:50:25.478Z,21.10
2023-04-03T22:52:35.363Z,14.10
2023-04-03T22:54:45.432Z,17.20
2023-04-03T22:56:55.983Z,13.30
2023-04-03T22:59:06.076Z,13.60
2023-04-03T23:01:16.857Z,17.20
2023-04-03T23:03:27.164Z,18.00
2023-04-03T23:05:37.105Z,17.80
2023-04-03T23:07:47.363Z,15.00
2023-04-03T23:09:57.414Z,11.10
2023-04-03T23:12:10.317Z,17.30
2023-04-03T23:14:22.425Z,17.00
2023-04-03T23:16:33.248Z,18.90
2023-04-03T23:18:44.213Z,16.70
2023-04-03T23:20:55.372Z,10.90
2023-04-03T23:23:06.286Z,21.00
2023-04-03T23:25:16.656Z,15.60
2023-04-03T23:27:26.974Z,17.10
2023-04-03T23:29:37.163Z,13.70
2023-04-03T23:31:47.022Z,16.10
2023-04-03T23:33:57.147Z,13.70
2023-04-03T23:36:11.989Z,18.60
2023-04-03T23:38:22.080Z,18.50
2023-04-03T23:40:32.069Z,15.80
2023-04-03T23:42:42.361Z,5.10
2023-04-03T23:44:53.029Z,8.90
2023-04-03T23:47:02.935Z,13.50
2023-04-03T23:49:12.614Z,16.30
2023-04-03T23:51:23.050Z,13.70
2023-04-03T23:53:32.956Z,15.80
2023-04-03T23:55:43.575Z,20.50
2023-04-03T23:57:53.644Z,24.30
